Time;durP1;ratioP1;P1;durP2;ratioP2;P2;SDS_P1;SDS_P2;PMS_P1;PMS_P2;Temp;Humidity;BMP_temperature;BMP_pressure;BME280_temperature;BME280_humidity;BME280_pressure;Samples;Min_cycle;Max_cycle;Signal;HPM_P1;HPM_P2
2020/12/14 00:01:09;;;;;;;10.07;5.10;;;;;;;4.50;86.35;100289.80;126833;1095;104488;-78
2020/12/14 00:03:51;;;;;;;11.10;5.33;;;;;;;4.54;86.01;100296.05;126852;1095;104500;-77
2020/12/14 00:06:23;;;;;;;11.03;5.17;;;;;;;4.55;86.25;100295.25;126842;1095;104666;-78
2020/12/14 00:08:52;;;;;;;9.77;4.97;;;;;;;4.55;86.07;100308.24;126825;1096;104807;-79
2020/12/14 00:11:21;;;;;;;7.87;4.60;;;;;;;4.55;86.54;100309.92;126807;1095;104551;-78
2020/12/14 00:13:50;;;;;;;9.70;5.03;;;;;;;4.56;86.18;100309.13;126820;1095;104679;-78
2020/12/14 00:16:19;;;;;;;11.20;5.20;;;;;;;4.57;86.53;100313.53;126799;1095;104613;-78
2020/12/14 00:18:48;;;;;;;10.87;5.30;;;;;;;4.55;86.18;100309.92;126832;1095;104494;-78
2020/12/14 00:21:18;;;;;;;8.47;4.57;;;;;;;4.54;86.59;100314.23;126845;1095;104753;-78
2020/12/14 00:23:47;;;;;;;8.83;4.73;;;;;;;4.52;86.34;100312.35;126806;1096;104688;-78
2020/12/14 00:26:16;;;;;;;8.87;4.63;;;;;;;4.49;85.79;100313.09;126857;1095;104730;-79
2020/12/14 00:28:47;;;;;;;9.93;5.13;;;;;;;4.49;86.56;100320.89;126843;1095;104490;-78
2020/12/14 00:31:18;;;;;;;10.10;4.70;;;;;;;4.49;86.05;100320.89;126840;1095;104547;-78
2020/12/14 00:33:47;;;;;;;9.10;4.57;;;;;;;4.50;86.02;100320.06;126862;1095;104744;-79
2020/12/14 00:36:16;;;;;;;9.40;4.90;;;;;;;4.52;86.36;100323.66;126802;1095;104822;-79
2020/12/14 00:38:46;;;;;;;8.63;4.50;;;;;;;4.54;86.09;100326.34;126831;1095;104603;-79
2020/12/14 00:41:19;;;;;;;7.60;4.40;;;;;;;4.55;86.73;100323.84;126860;1095;104449;-79
2020/12/14 00:43:49;;;;;;;9.07;4.20;;;;;;;4.55;86.35;100326.44;126931;1095;104429;-79
2020/12/14 00:46:19;;;;;;;9.27;4.57;;;;;;;4.54;86.29;100328.95;126906;1095;104634;-79
2020/12/14 00:48:48;;;;;;;8.67;4.77;;;;;;;4.50;86.14;100333.05;126873;1095;104621;-79
2020/12/14 00:51:17;;;;;;;8.47;4.60;;;;;;;4.53;86.66;100333.23;126904;1095;104433;-79
2020/12/14 00:53:45;;;;;;;8.10;4.50;;;;;;;4.52;86.07;100338.34;126861;1095;104436;-79
2020/12/14 00:56:14;;;;;;;8.67;4.57;;;;;;;4.51;85.95;100345.25;126892;1095;104458;-79
2020/12/14 00:58:44;;;;;;;8.20;4.40;;;;;;;4.48;86.04;100343.36;126908;1095;104430;-79
2020/12/14 01:01:15;;;;;;;9.00;4.30;;;;;;;4.49;86.18;100346.88;126842;1095;104560;-79
2020/12/14 01:03:44;;;;;;;8.20;4.70;;;;;;;4.52;85.96;100346.13;127400;1091;104488;-80
2020/12/14 01:06:13;;;;;;;7.17;4.23;;;;;;;4.54;86.35;100336.74;127429;1091;104554;-79
2020/12/14 01:08:43;;;;;;;10.13;4.63;;;;;;;4.53;85.96;100341.02;127433;1092;104576;-79
2020/12/14 01:11:12;;;;;;;7.93;4.73;;;;;;;4.48;85.72;100342.47;127377;1092;104557;-78
2020/12/14 01:13:41;;;;;;;9.53;5.00;;;;;;;4.47;86.34;100338.98;127337;1092;104436;-80
2020/12/14 01:16:10;;;;;;;9.07;4.87;;;;;;;4.47;85.71;100336.39;127394;1091;104431;-80
2020/12/14 01:18:39;;;;;;;8.53;4.40;;;;;;;4.49;85.96;100334.77;127391;1091;104554;-80
2020/12/14 01:21:08;;;;;;;7.30;4.20;;;;;;;4.51;85.89;100321.86;127400;1091;104427;-80
2020/12/14 01:23:37;;;;;;;6.73;3.97;;;;;;;4.49;86.11;100324.38;127409;1092;104493;-78
2020/12/14 01:26:06;;;;;;;8.67;4.30;;;;;;;4.49;86.07;100319.17;127352;1091;104544;-79
2020/12/14 01:28:35;;;;;;;7.73;4.00;;;;;;;4.49;86.22;100320.89;127398;1091;104554;-79
2020/12/14 01:31:04;;;;;;;6.90;3.63;;;;;;;4.48;86.64;100319.09;127407;1091;104426;-79
2020/12/14 01:33:32;;;;;;;8.40;3.80;;;;;;;4.45;85.93;100316.31;127276;1093;104496;-79
2020/12/14 01:36:02;;;;;;;8.07;3.80;;;;;;;4.44;85.91;100327.50;127278;1092;104433;-79
2020/12/14 01:38:31;;;;;;;6.90;3.57;;;;;;;4.44;85.92;100328.42;127275;1091;104457;-79
2020/12/14 01:40:59;;;;;;;6.90;3.80;;;;;;;4.46;85.89;100328.50;127283;1092;104481;-80
2020/12/14 01:43:28;;;;;;;11.43;4.73;;;;;;;4.50;85.64;100325.25;127304;1092;104507;-80
2020/12/14 01:45:57;;;;;;;8.07;4.07;;;;;;;4.51;86.33;100321.86;127334;1092;104726;-80
2020/12/14 01:48:27;;;;;;;7.77;3.80;;;;;;;4.48;86.09;100324.28;127321;1092;104482;-79
2020/12/14 01:50:56;;;;;;;6.77;3.90;;;;;;;4.46;86.34;100329.39;127269;1092;104797;-79
2020/12/14 01:53:27;;;;;;;6.17;3.70;;;;;;;4.45;86.03;100337.98;127300;1092;104542;-79
2020/12/14 01:55:56;;;;;;;8.30;3.90;;;;;;;4.45;85.91;100337.09;127282;1092;104437;-79
2020/12/14 01:58:25;;;;;;;7.23;4.00;;;;;;;4.47;85.66;100343.27;127307;1093;104496;-80
2020/12/14 02:00:54;;;;;;;6.60;3.80;;;;;;;4.50;86.21;100346.05;127244;1092;104599;-79
2020/12/14 02:03:23;;;;;;;8.83;4.33;;;;;;;4.49;85.93;100344.27;127274;1092;104574;-80
2020/12/14 02:05:52;;;;;;;8.57;4.70;;;;;;;4.50;86.37;100346.96;127356;1091;104440;-81
2020/12/14 02:08:21;;;;;;;8.87;4.77;;;;;;;4.53;86.06;100350.53;127394;1092;104443;-80
2020/12/14 02:10:50;;;;;;;7.30;4.30;;;;;;;4.54;86.38;100355.81;127391;1091;104570;-80
2020/12/14 02:13:19;;;;;;;5.67;3.40;;;;;;;4.55;86.06;100357.62;127411;1091;104490;-79
2020/12/14 02:15:48;;;;;;;6.13;3.57;;;;;;;4.53;85.99;100359.21;127333;1091;104535;-80
2020/12/14 02:18:17;;;;;;;6.70;3.30;;;;;;;4.56;86.29;100356.79;127344;1091;104435;-81
2020/12/14 02:20:46;;;;;;;7.13;3.60;;;;;;;4.59;85.79;100367.36;127343;1091;104611;-80
2020/12/14 02:23:15;;;;;;;6.43;3.43;;;;;;;4.61;86.01;100370.05;127375;1092;104439;-80
2020/12/14 02:25:44;;;;;;;8.33;4.23;;;;;;;4.56;86.19;100374.09;127360;1092;104433;-80
2020/12/14 02:28:13;;;;;;;7.93;4.70;;;;;;;4.53;85.74;100372.20;127340;1091;104461;-80
2020/12/14 02:30:41;;;;;;;8.90;4.50;;;;;;;4.50;85.62;100388.53;127420;1092;104433;-80
2020/12/14 02:33:10;;;;;;;8.70;4.30;;;;;;;4.53;85.76;100382.60;127390;1091;104477;-80
2020/12/14 02:35:39;;;;;;;7.83;3.93;;;;;;;4.54;85.85;100384.41;127394;1091;104528;-80
2020/12/14 02:38:08;;;;;;;11.40;4.70;;;;;;;4.54;85.92;100378.32;127383;1092;104563;-80
2020/12/14 02:40:37;;;;;;;19.70;7.07;;;;;;;4.48;85.73;100377.13;127353;1092;104539;-79
2020/12/14 02:43:06;;;;;;;18.77;7.53;;;;;;;4.45;86.15;100381.27;127397;1091;104515;-79
2020/12/14 02:45:37;;;;;;;18.53;6.67;;;;;;;4.43;86.07;100369.91;127379;1092;104488;-80
2020/12/14 02:48:06;;;;;;;14.33;6.00;;;;;;;4.45;86.11;100368.28;127415;1091;104494;-80
2020/12/14 02:50:35;;;;;;;12.47;5.13;;;;;;;4.45;86.21;100370.88;127410;1092;104462;-80
2020/12/14 02:53:05;;;;;;;10.00;4.27;;;;;;;4.44;85.70;100363.88;127382;1092;104573;-79
2020/12/14 02:55:34;;;;;;;11.07;4.33;;;;;;;4.42;85.80;100365.50;127396;1091;104490;-79
2020/12/14 02:58:03;;;;;;;12.17;4.97;;;;;;;4.42;86.14;100362.91;127349;1091;104432;-80
2020/12/14 03:00:32;;;;;;;8.83;3.90;;;;;;;4.39;85.94;100357.53;127378;1091;104552;-80
2020/12/14 03:03:01;;;;;;;10.87;4.73;;;;;;;4.40;85.77;100369.72;127425;1091;104433;-79
2020/12/14 03:05:30;;;;;;;11.07;4.83;;;;;;;4.37;86.14;100357.44;127367;1091;104431;-79
2020/12/14 03:07:58;;;;;;;16.43;5.60;;;;;;;4.35;85.69;100365.94;127375;1092;104551;-80
2020/12/14 03:10:27;;;;;;;15.87;5.80;;;;;;;4.35;85.91;100376.33;127415;1091;104452;-80
2020/12/14 03:12:56;;;;;;;18.67;6.60;;;;;;;4.35;85.76;100376.33;127416;1091;104450;-80
2020/12/14 03:15:26;;;;;;;17.07;6.50;;;;;;;4.37;86.28;100385.13;127395;1091;104432;-80
2020/12/14 03:17:55;;;;;;;19.13;7.40;;;;;;;4.37;86.28;100385.13;127392;1092;104530;-81
2020/12/14 03:20:24;;;;;;;15.80;6.73;;;;;;;4.39;85.77;100383.51;127430;1091;104458;-81
2020/12/14 03:22:52;;;;;;;13.33;6.17;;;;;;;4.41;86.46;100382.80;127377;1091;104429;-80
2020/12/14 03:25:21;;;;;;;19.60;9.37;;;;;;;4.38;85.39;100387.81;127338;1091;104432;-80
2020/12/14 03:27:50;;;;;;;18.10;7.70;;;;;;;4.36;85.72;100383.33;127398;1092;104570;-80
2020/12/14 03:30:19;;;;;;;13.63;6.50;;;;;;;4.38;86.14;100393.02;127337;1091;104436;-79
2020/12/14 03:32:48;;;;;;;11.40;5.57;;;;;;;4.38;86.10;100397.30;127410;1091;104433;-80
2020/12/14 03:35:17;;;;;;;16.33;8.73;;;;;;;4.39;85.94;100393.91;127386;1092;104433;-80
2020/12/14 03:37:46;;;;;;;11.40;5.97;;;;;;;4.41;85.85;100395.80;127423;1091;104452;-80
2020/12/14 03:40:15;;;;;;;8.17;4.90;;;;;;;4.41;86.26;100394.88;127429;1091;104546;-79
2020/12/14 03:42:44;;;;;;;10.63;5.23;;;;;;;4.38;85.87;100400.81;127394;1091;104457;-80
2020/12/14 03:45:14;;;;;;;12.87;6.27;;;;;;;4.35;86.23;100405.83;127425;1092;104452;-80
2020/12/14 03:47:42;;;;;;;16.80;8.10;;;;;;;4.25;86.21;100396.56;127413;1091;104868;-81
2020/12/14 03:50:11;;;;;;;15.93;7.50;;;;;;;4.28;85.80;100414.05;127465;1091;104542;-79
2020/12/14 03:52:40;;;;;;;19.83;8.60;;;;;;;4.27;85.67;100414.84;127342;1092;104535;-80
2020/12/14 03:55:09;;;;;;;32.50;12.93;;;;;;;4.27;85.77;100418.36;127335;1091;104448;-80
2020/12/14 03:57:38;;;;;;;36.43;14.27;;;;;;;4.29;85.76;100414.14;127355;1092;104435;-80
2020/12/14 04:03:44;;;;;;;19.07;7.23;;;;;;;4.28;86.00;100425.33;127715;1091;103775;-80
2020/12/14 04:06:19;;;;;;;12.27;5.70;;;;;;;4.29;86.18;100419.33;127326;1092;104484;-80
2020/12/14 04:08:49;;;;;;;12.93;5.97;;;;;;;4.28;86.07;100421.84;127346;1092;104548;-81
2020/12/14 04:11:18;;;;;;;10.83;5.37;;;;;;;4.26;85.59;100420.86;127374;1091;104554;-80
2020/12/14 04:13:47;;;;;;;10.07;5.13;;;;;;;4.22;86.39;100427.55;127399;1092;104432;-81
2020/12/14 04:16:16;;;;;;;13.20;6.00;;;;;;;4.19;86.10;100419.61;127406;1091;104560;-81
2020/12/14 04:18:45;;;;;;;12.97;6.30;;;;;;;4.18;85.71;100423.00;127351;1091;104565;-79
2020/12/14 04:21:17;;;;;;;13.77;6.80;;;;;;;4.18;85.76;100425.59;127375;1091;104525;-82
2020/12/14 04:23:46;;;;;;;12.27;6.10;;;;;;;4.19;85.78;100431.67;127340;1091;104436;-83
2020/12/14 04:26:16;;;;;;;11.80;5.70;;;;;;;4.17;86.15;100426.39;127380;1092;104436;-82
2020/12/14 04:28:44;;;;;;;14.30;6.77;;;;;;;4.14;85.61;100427.13;127388;1091;104429;-81
2020/12/14 04:31:13;;;;;;;11.30;5.60;;;;;;;4.11;86.30;100424.34;127396;1091;104587;-81
2020/12/14 04:33:42;;;;;;;10.83;5.30;;;;;;;4.08;86.19;100424.16;127362;1091;104554;-82
2020/12/14 04:36:13;;;;;;;17.67;7.13;;;;;;;4.06;85.77;100427.45;127407;1091;104433;-82
2020/12/14 04:38:42;;;;;;;19.60;7.80;;;;;;;4.04;86.35;100435.16;127364;1091;104435;-83
2020/12/14 04:41:12;;;;;;;19.73;7.97;;;;;;;4.05;86.34;100436.03;127379;1091;104554;-82
2020/12/14 04:43:43;;;;;;;19.23;8.50;;;;;;;4.06;86.47;100443.92;127374;1091;104583;-80
2020/12/14 04:46:12;;;;;;;20.00;10.20;;;;;;;4.09;86.13;100446.70;127371;1091;104442;-81
2020/12/14 04:48:42;;;;;;;21.73;12.57;;;;;;;4.10;86.00;100448.51;127396;1091;104494;-78
2020/12/14 04:51:11;;;;;;;20.50;11.10;;;;;;;4.12;85.83;100446.00;127359;1091;104512;-80
2020/12/14 04:53:41;;;;;;;18.77;9.60;;;;;;;4.13;85.80;100447.81;127419;1091;104436;-85
2020/12/14 04:56:11;;;;;;;18.73;10.53;;;;;;;4.12;85.60;100449.48;127389;1091;104440;-75
2020/12/14 04:58:40;;;;;;;14.53;7.87;;;;;;;4.10;85.64;100460.61;127371;1091;104423;-75
2020/12/14 05:01:09;;;;;;;13.70;7.47;;;;;;;4.07;85.79;100468.21;127391;1092;104429;-76
2020/12/14 05:03:39;;;;;;;13.27;6.17;;;;;;;4.05;85.66;100465.52;127382;1092;104449;-76
2020/12/14 05:06:08;;;;;;;8.73;4.80;;;;;;;4.05;85.86;100462.92;127387;1092;104491;-76
2020/12/14 05:08:36;;;;;;;9.90;4.83;;;;;;;4.04;85.95;100474.10;127390;1091;104438;-75
2020/12/14 05:11:05;;;;;;;10.33;5.00;;;;;;;4.03;86.32;100474.00;127331;1092;104429;-73
2020/12/14 05:13:34;;;;;;;9.33;4.40;;;;;;;4.01;86.23;100473.02;127345;1092;104442;-73
2020/12/14 05:16:04;;;;;;;9.67;4.73;;;;;;;4.02;86.47;100473.12;127327;1091;105403;-73
2020/12/14 05:18:33;;;;;;;9.87;4.70;;;;;;;4.04;86.36;100470.62;127372;1091;104494;-75
2020/12/14 05:21:04;;;;;;;11.50;5.47;;;;;;;4.05;85.81;100486.30;127359;1091;104432;-73
2020/12/14 05:23:36;;;;;;;12.25;5.65;;;;;;;4.08;85.89;100493.35;127356;1091;104436;-73
2020/12/14 05:26:07;;;;;;;12.20;6.10;;;;;;;4.07;85.86;100488.98;127405;1091;104471;-74
2020/12/14 05:28:36;;;;;;;12.63;5.53;;;;;;;4.08;86.38;100498.55;127354;1091;104436;-74
2020/12/14 05:31:05;;;;;;;10.53;5.60;;;;;;;4.07;86.31;100504.56;127365;1092;104438;-74
2020/12/14 05:33:34;;;;;;;11.03;5.53;;;;;;;4.08;85.84;100504.66;127394;1092;104563;-73
2020/12/14 05:36:03;;;;;;;10.93;5.00;;;;;;;4.03;86.35;100493.07;127326;1091;104435;-72
2020/12/14 05:38:33;;;;;;;13.20;6.10;;;;;;;4.11;86.02;100511.72;127371;1092;104455;-75
2020/12/14 05:41:04;;;;;;;15.23;6.97;;;;;;;4.11;85.78;100506.53;127359;1091;104475;-75
2020/12/14 05:43:34;;;;;;;16.97;8.30;;;;;;;4.13;85.78;100504.94;127362;1092;104455;-75
2020/12/14 05:46:14;;;;;;;15.40;7.87;;;;;;;4.13;85.74;100504.94;127379;1091;104562;-75
2020/12/14 05:48:44;;;;;;;14.90;7.53;;;;;;;4.15;86.28;100521.51;127360;1092;104483;-75
2020/12/14 05:51:13;;;;;;;16.27;8.43;;;;;;;4.15;86.55;100518.91;127389;1091;104493;-75
2020/12/14 05:53:50;;;;;;;19.07;8.17;;;;;;;4.19;85.83;100526.09;127357;1091;104421;-76
2020/12/14 05:56:19;;;;;;;19.43;9.40;;;;;;;4.23;86.34;100530.66;127384;1092;104494;-75
2020/12/14 05:58:55;;;;;;;19.90;9.67;;;;;;;4.24;86.39;100527.27;127316;1091;104474;-74
2020/12/14 06:01:24;;;;;;;18.27;7.80;;;;;;;4.26;86.23;100529.96;127316;1092;104477;-73
2020/12/14 06:03:58;;;;;;;14.80;7.30;;;;;;;4.26;85.93;100523.05;127394;1092;104481;-72
2020/12/14 06:06:31;;;;;;;16.95;8.30;;;;;;;4.27;85.62;100527.45;127387;1091;104494;-74
2020/12/14 06:09:16;;;;;;;20.57;9.17;;;;;;;4.31;86.08;100537.21;127384;1091;104487;-74
2020/12/14 06:11:53;;;;;;;21.07;10.20;;;;;;;4.33;85.71;100539.91;127395;1091;104526;-73
2020/12/14 06:14:24;;;;;;;20.27;10.33;;;;;;;4.31;86.47;100537.21;127386;1092;104421;-73
2020/12/14 06:16:54;;;;;;;17.67;9.23;;;;;;;4.30;86.22;100544.91;127406;1091;104455;-74
2020/12/14 06:19:23;;;;;;;17.23;8.63;;;;;;;4.28;85.66;100542.22;127364;1092;104433;-75
2020/12/14 06:22:01;;;;;;;23.93;11.17;;;;;;;4.30;86.27;100548.42;127371;1091;104429;-73
2020/12/14 06:24:33;;;;;;;18.50;9.23;;;;;;;4.32;85.77;100562.40;127358;1091;104576;-74
2020/12/14 06:27:03;;;;;;;20.70;9.73;;;;;;;4.33;85.70;100560.69;127351;1092;104445;-73
2020/12/14 06:29:34;;;;;;;17.47;8.80;;;;;;;4.32;85.99;100565.00;127366;1092;104570;-76
2020/12/14 06:32:24;;;;;;;17.63;8.73;;;;;;;4.33;86.04;100578.88;127409;1091;104554;-75
2020/12/14 06:34:53;;;;;;;19.37;9.20;;;;;;;4.35;85.76;100578.97;127365;1091;104436;-77
2020/12/14 06:37:23;;;;;;;15.63;7.50;;;;;;;4.33;85.72;100581.47;127368;1091;104554;-75
2020/12/14 06:39:59;;;;;;;14.57;6.70;;;;;;;4.31;85.93;100573.58;127291;1092;104536;-75
2020/12/14 06:42:28;;;;;;;11.60;5.73;;;;;;;4.30;85.72;100583.88;127353;1092;104458;-74
2020/12/14 06:45:12;;;;;;;15.13;6.80;;;;;;;4.27;85.61;100579.41;127360;1092;104436;-74
2020/12/14 06:47:46;;;;;;;15.80;6.97;;;;;;;4.25;86.12;100577.51;127400;1091;104439;-75
2020/12/14 06:50:31;;;;;;;21.33;10.23;;;;;;;4.24;85.65;100576.63;127370;1091;104585;-75
2020/12/14 06:53:01;;;;;;;26.50;13.03;;;;;;;4.24;85.61;100574.02;127377;1091;104553;-75
2020/12/14 06:55:47;;;;;;;31.30;15.33;;;;;;;4.26;85.79;100575.01;127374;1091;104558;-77
2020/12/14 06:58:32;;;;;;;27.37;13.23;;;;;;;4.29;86.23;100582.11;127344;1092;104438;-75
2020/12/14 07:01:02;;;;;;;17.83;7.93;;;;;;;4.36;85.78;100581.66;127362;1091;104474;-75
2020/12/14 07:03:35;;;;;;;14.73;7.17;;;;;;;4.37;86.16;100583.47;127388;1092;104089;-77
2020/12/14 07:06:06;;;;;;;13.48;5.97;;;;;;;4.39;86.16;100583.56;127335;1091;104515;-77
2020/12/14 07:08:39;;;;;;;15.10;6.93;;;;;;;4.38;85.74;100587.88;127311;1092;104608;-76
2020/12/14 07:11:15;;;;;;;14.27;6.33;;;;;;;4.37;85.98;100583.47;127356;1092;104519;-76
2020/12/14 07:13:46;;;;;;;17.57;7.60;;;;;;;4.35;86.09;100578.97;127417;1091;104434;-77
2020/12/14 07:16:19;;;;;;;17.47;8.27;;;;;;;4.35;86.01;100589.36;127372;1092;104565;-76
2020/12/14 07:18:52;;;;;;;16.60;8.20;;;;;;;4.34;85.76;100585.87;127316;1092;104436;-76
2020/12/14 07:21:22;;;;;;;16.87;7.93;;;;;;;4.36;85.49;100592.05;127382;1091;104477;-79
2020/12/14 07:23:54;;;;;;;15.83;7.57;;;;;;;4.36;85.77;100605.05;127353;1092;104500;-77
2020/12/14 07:26:26;;;;;;;17.97;8.33;;;;;;;4.37;86.03;100598.17;127416;1091;104429;-74
2020/12/14 07:28:56;;;;;;;16.87;8.23;;;;;;;4.38;86.13;100598.27;127340;1091;104454;-76
2020/12/14 07:31:27;;;;;;;18.57;8.93;;;;;;;4.42;85.35;100599.34;127276;1092;104557;-75
2020/12/14 07:33:58;;;;;;;18.40;8.10;;;;;;;4.45;86.08;100620.31;127283;1092;104474;-76
2020/12/14 07:36:29;;;;;;;18.23;7.27;;;;;;;4.43;86.26;100609.83;127338;1092;104432;-76
2020/12/14 07:38:59;;;;;;;14.20;6.60;;;;;;;4.44;85.76;100623.70;127343;1091;104442;-76
2020/12/14 07:41:31;;;;;;;14.45;7.12;;;;;;;4.42;85.63;100623.61;127320;1091;104487;-76
2020/12/14 07:44:01;;;;;;;15.20;7.10;;;;;;;4.44;85.54;100631.50;127332;1091;104640;-80
2020/12/14 07:46:33;;;;;;;13.00;6.47;;;;;;;4.49;85.93;100633.59;127356;1091;104432;-75
2020/12/14 07:49:06;;;;;;;14.90;6.60;;;;;;;4.50;85.84;100631.89;127363;1091;104989;-77
2020/12/14 07:51:36;;;;;;;17.03;6.87;;;;;;;4.49;85.86;100633.59;127335;1091;104486;-74
2020/12/14 07:54:12;;;;;;;17.43;7.87;;;;;;;4.52;85.58;100624.19;127374;1091;104416;-75
2020/12/14 07:56:49;;;;;;;17.40;7.10;;;;;;;4.59;85.40;100624.66;127357;1091;104515;-76
2020/12/14 07:59:21;;;;;;;13.60;6.63;;;;;;;4.60;85.84;100621.27;127404;1091;104433;-78
2020/12/14 08:01:51;;;;;;;13.70;6.17;;;;;;;4.62;85.99;100632.64;127416;1091;104430;-77
2020/12/14 08:04:28;;;;;;;15.37;6.80;;;;;;;4.63;85.49;100629.25;127383;1091;104442;-79
2020/12/14 08:07:00;;;;;;;15.17;6.83;;;;;;;4.68;85.61;100638.22;127347;1091;104518;-77
2020/12/14 08:09:44;;;;;;;14.47;6.63;;;;;;;4.70;85.77;100632.23;127325;1092;104576;-77
2020/12/14 08:12:16;;;;;;;14.80;6.60;;;;;;;4.76;85.97;100636.09;127392;1091;104432;-79
2020/12/14 08:14:50;;;;;;;13.70;6.60;;;;;;;4.82;85.34;100628.67;127332;1091;104429;-78
2020/12/14 08:17:26;;;;;;;14.10;7.07;;;;;;;4.85;85.65;100630.57;127383;1091;104497;-76
2020/12/14 08:20:02;;;;;;;15.25;6.62;;;;;;;4.86;85.32;100632.34;127405;1092;104564;-79
2020/12/14 08:22:34;;;;;;;13.30;5.53;;;;;;;4.89;85.73;100629.92;127262;1092;104565;-77
2020/12/14 08:25:07;;;;;;;14.60;6.77;;;;;;;4.91;85.46;100630.94;127342;1091;104549;-78
2020/12/14 08:27:50;;;;;;;13.50;6.60;;;;;;;4.94;85.16;100635.41;127360;1091;104442;-77
2020/12/14 08:30:25;;;;;;;11.87;6.00;;;;;;;5.00;85.24;100633.17;127370;1091;104607;-80
2020/12/14 08:33:12;;;;;;;10.93;5.87;;;;;;;5.08;85.55;100644.05;127319;1092;104859;-77
2020/12/14 08:35:47;;;;;;;12.57;5.50;;;;;;;5.10;85.34;100630.34;127346;1092;104455;-78
2020/12/14 08:38:20;;;;;;;13.43;5.90;;;;;;;5.08;85.52;100636.23;127334;1092;104436;-79
2020/12/14 08:40:56;;;;;;;12.47;5.73;;;;;;;5.10;85.64;100639.85;127270;1092;104555;-80
2020/12/14 08:43:27;;;;;;;11.20;5.60;;;;;;;5.10;85.26;100645.05;127281;1091;104609;-77
2020/12/14 08:46:17;;;;;;;14.77;5.97;;;;;;;5.06;85.30;100641.34;127282;1092;104493;-76
2020/12/14 08:48:53;;;;;;;13.90;6.00;;;;;;;5.01;85.16;100645.39;127291;1092;104605;-76
2020/12/14 08:51:25;;;;;;;13.45;5.70;;;;;;;4.99;85.15;100642.70;127242;1092;104718;-80
2020/12/14 08:54:10;;;;;;;13.33;6.23;;;;;;;5.00;85.71;100638.38;127259;1091;104599;-80
2020/12/14 08:56:40;;;;;;;11.63;5.87;;;;;;;5.02;85.04;100644.59;126922;1094;104449;-78
2020/12/14 08:59:18;;;;;;;10.20;5.60;;;;;;;5.00;85.39;100641.91;126959;1092;104599;-78
2020/12/14 09:02:04;;;;;;;12.37;6.30;;;;;;;5.02;85.42;100642.88;127256;1092;104669;-78
2020/12/14 09:04:36;;;;;;;13.50;6.17;;;;;;;5.08;85.24;100644.05;127294;1092;104624;-78
2020/12/14 09:07:06;;;;;;;10.93;5.47;;;;;;;5.12;85.33;100652.12;127296;1092;104618;-75
2020/12/14 09:09:39;;;;;;;11.43;5.53;;;;;;;5.12;85.30;100640.83;127258;1092;104631;-77
2020/12/14 09:12:13;;;;;;;12.97;6.40;;;;;;;5.10;85.13;100645.05;127072;1092;104494;-78
2020/12/14 09:14:41;;;;;;;;;;;;;;;5.07;84.90;100635.36;127231;1092;104911;-79
2020/12/14 09:17:16;;;;;;;13.33;6.10;;;;;;;5.03;85.14;100634.28;127315;1091;104440;-79
2020/12/14 09:19:54;;;;;;;15.95;7.20;;;;;;;5.03;84.92;100636.88;127282;1091;104567;-80
2020/12/14 09:22:27;;;;;;;11.87;5.80;;;;;;;5.08;85.09;100631.03;127345;1092;104439;-80
2020/12/14 09:25:04;;;;;;;13.90;6.40;;;;;;;5.08;84.76;100634.56;127345;1091;104461;-79
2020/12/14 09:27:54;;;;;;;13.00;6.03;;;;;;;5.03;85.16;100634.28;127232;1091;104435;-76
2020/12/14 09:33:30;;;;;;;19.27;8.77;;;;;;;5.03;85.07;100628.16;128945;1085;104439;-79
2020/12/14 09:36:00;;;;;;;21.97;10.30;;;;;;;5.08;84.92;100625.84;127477;1091;104512;-78
2020/12/14 09:42:08;;;;;;;21.37;9.17;;;;;;;5.15;84.73;100625.41;127689;1092;104538;-77
2020/12/14 09:44:41;;;;;;;22.37;9.47;;;;;;;5.14;84.74;100628.80;127726;1091;104535;-77
2020/12/14 09:47:19;;;;;;;23.30;9.43;;;;;;;5.16;85.22;100622.02;127609;1091;104401;-77
2020/12/14 09:49:54;;;;;;;22.13;9.73;;;;;;;5.14;85.12;100624.52;127679;1091;104429;-79
2020/12/14 09:52:23;;;;;;;14.75;6.92;;;;;;;5.15;84.66;100620.20;127664;1091;104433;-77
2020/12/14 09:54:52;;;;;;;16.00;7.03;;;;;;;5.17;85.04;100616.90;127504;1092;104407;-78
2020/12/14 09:57:23;;;;;;;18.05;7.10;;;;;;;5.20;85.09;100610.95;127392;1091;104305;-78
2020/12/14 09:59:52;;;;;;;150.37;43.00;;;;;;;5.27;85.05;100617.44;127519;1092;104455;-77
2020/12/14 10:02:22;;;;;;;14.67;6.27;;;;;;;5.28;84.64;100614.90;127392;1092;104414;-78
2020/12/14 10:04:51;;;;;;;14.47;6.43;;;;;;;5.28;84.32;100619.22;127361;1092;104436;-78
2020/12/14 10:07:21;;;;;;;13.37;5.83;;;;;;;5.33;84.93;100617.77;127382;1092;104446;-78
2020/12/14 10:09:51;;;;;;;15.07;5.60;;;;;;;5.37;84.81;100614.55;127362;1093;104433;-79
2020/12/14 10:12:20;;;;;;;16.37;5.93;;;;;;;5.39;84.78;100626.86;127547;1091;104496;-76
2020/12/14 10:14:52;;;;;;;12.87;5.93;;;;;;;5.40;84.79;100619.94;127463;1091;104433;-75
2020/12/14 10:17:21;;;;;;;12.23;5.77;;;;;;;5.38;84.50;100630.25;127552;1091;104455;-77
2020/12/14 10:19:50;;;;;;;10.93;5.13;;;;;;;5.37;84.45;100633.66;127356;1091;104612;-78
2020/12/14 10:22:22;;;;;;;12.00;5.97;;;;;;;5.31;84.38;100638.50;127488;1092;104520;-76
2020/12/14 10:24:53;;;;;;;12.82;6.05;;;;;;;5.27;84.18;100630.45;127499;1092;104416;-75
2020/12/14 10:27:22;;;;;;;12.40;5.67;;;;;;;5.25;84.49;100632.97;127360;1092;104551;-76
2020/12/14 10:29:52;;;;;;;12.37;5.60;;;;;;;5.23;84.09;100629.35;127285;1092;104443;-77
2020/12/14 10:32:25;;;;;;;10.77;5.50;;;;;;;5.25;84.65;100626.84;127460;1091;104405;-80
2020/12/14 10:34:57;;;;;;;14.10;6.10;;;;;;;5.24;84.26;100625.95;127571;1092;104494;-77
2020/12/14 10:37:30;;;;;;;12.20;6.27;;;;;;;5.26;84.15;100629.53;127422;1091;104430;-80
2020/12/14 10:40:02;;;;;;;15.73;7.27;;;;;;;5.30;84.62;100628.00;127473;1091;104445;-79
2020/12/14 10:42:32;;;;;;;15.83;7.60;;;;;;;5.29;84.14;100624.51;127598;1092;104578;-79
2020/12/14 10:45:02;;;;;;;15.03;7.47;;;;;;;5.33;84.29;100623.89;127453;1093;104533;-78
2020/12/14 10:47:32;;;;;;;13.93;6.20;;;;;;;5.34;84.40;100630.88;127418;1092;104410;-77
2020/12/14 10:50:01;;;;;;;14.87;6.47;;;;;;;5.37;84.29;100633.66;127484;1091;104455;-78
2020/12/14 10:52:35;;;;;;;14.73;7.07;;;;;;;5.37;84.37;100636.25;127541;1091;104562;-77
2020/12/14 10:55:07;;;;;;;14.20;6.83;;;;;;;5.40;84.16;100632.95;127416;1092;104436;-76
2020/12/14 10:57:36;;;;;;;17.03;7.70;;;;;;;5.42;84.35;100633.03;127369;1092;104494;-76
2020/12/14 11:00:07;;;;;;;16.67;7.23;;;;;;;5.39;84.32;100633.74;127324;1092;104514;-77
2020/12/14 11:02:39;;;;;;;19.23;8.20;;;;;;;5.36;84.33;100637.08;127379;1092;104557;-77
2020/12/14 11:05:10;;;;;;;21.43;9.67;;;;;;;5.34;84.41;100636.08;127291;1091;104411;-77
2020/12/14 11:07:40;;;;;;;19.27;8.13;;;;;;;5.35;84.14;100637.00;127205;1091;104952;-77
2020/12/14 11:10:11;;;;;;;16.90;8.00;;;;;;;5.34;84.34;100637.79;127341;1092;104920;-81
2020/12/14 11:12:40;;;;;;;18.10;8.60;;;;;;;5.32;83.96;100645.50;127182;1092;104526;-81
2020/12/14 11:15:09;;;;;;;20.00;8.47;;;;;;;5.29;83.91;100650.53;127292;1092;104548;-77
2020/12/14 11:17:38;;;;;;;19.27;8.70;;;;;;;5.24;84.46;100646.77;127313;1092;104410;-76
2020/12/14 11:20:09;;;;;;;17.47;8.17;;;;;;;5.21;84.37;100642.27;127398;1092;104627;-77
2020/12/14 11:22:38;;;;;;;17.77;7.90;;;;;;;5.21;83.82;100629.26;127437;1092;104407;-77
2020/12/14 11:25:10;;;;;;;19.63;8.90;;;;;;;5.21;84.12;100626.66;127518;1093;104427;-78
2020/12/14 11:27:39;;;;;;;19.63;8.40;;;;;;;5.22;84.21;100628.47;127543;1092;104414;-79
2020/12/14 11:30:08;;;;;;;16.10;7.67;;;;;;;5.22;84.08;100637.98;127087;1092;104427;-79
2020/12/14 11:32:37;;;;;;;18.03;8.03;;;;;;;5.22;83.98;100625.86;127413;1091;104590;-80
2020/12/14 11:35:07;;;;;;;15.67;6.57;;;;;;;5.27;84.06;100635.66;127358;1092;104500;-78
2020/12/14 11:37:37;;;;;;;18.10;8.70;;;;;;;5.27;84.02;100635.66;127337;1092;104548;-81
2020/12/14 11:40:07;;;;;;;18.33;8.40;;;;;;;5.25;84.02;100648.58;127435;1091;104512;-76